createdAt,value
2023-08-11T00:00:10.200Z,100.00
2023-08-11T00:02:41.180Z,100.00
2023-08-11T00:05:11.167Z,100.00
2023-08-11T00:07:39.626Z,100.00
2023-08-11T00:10:09.190Z,100.00
2023-08-11T00:12:37.895Z,100.00
2023-08-11T00:15:08.079Z,100.00
2023-08-11T00:17:36.566Z,100.00
2023-08-11T00:20:07.444Z,100.00
2023-08-11T00:22:38.520Z,100.00
2023-08-11T00:25:07.782Z,100.00
2023-08-11T00:27:36.233Z,100.00
2023-08-11T00:30:06.721Z,100.00
2023-08-11T00:32:35.244Z,100.00
2023-08-11T00:35:05.642Z,100.00
2023-08-11T00:37:34.853Z,100.00
2023-08-11T00:40:06.683Z,100.00
2023-08-11T00:42:35.048Z,100.00
2023-08-11T00:45:04.529Z,100.00
2023-08-11T00:47:33.647Z,100.00
2023-08-11T00:50:02.368Z,100.00
2023-08-11T00:52:31.417Z,100.00
2023-08-11T00:55:00.003Z,100.00
2023-08-11T00:57:29.825Z,100.00
2023-08-11T00:59:58.300Z,100.00
2023-08-11T01:02:27.276Z,100.00
2023-08-11T01:04:56.028Z,100.00
2023-08-11T01:07:25.811Z,100.00
2023-08-11T01:10:00.502Z,100.00
2023-08-11T01:12:33.817Z,100.00
2023-08-11T01:15:06.321Z,100.00
2023-08-11T01:17:35.125Z,100.00
2023-08-11T01:20:09.627Z,100.00
2023-08-11T01:22:38.067Z,100.00
2023-08-11T01:25:08.780Z,100.00
2023-08-11T01:27:37.704Z,100.00
2023-08-11T01:30:07.953Z,100.00
2023-08-11T01:32:36.385Z,100.00
2023-08-11T01:35:06.940Z,100.00
2023-08-11T01:37:35.309Z,100.00
2023-08-11T01:40:07.009Z,100.00
2023-08-11T01:42:43.169Z,100.00
2023-08-11T01:45:17.055Z,100.00
2023-08-11T01:47:46.959Z,100.00
2023-08-11T01:50:15.947Z,100.00
2023-08-11T01:52:44.942Z,100.00
2023-08-11T01:55:13.394Z,100.00
2023-08-11T01:57:52.120Z,100.00
2023-08-11T02:00:25.475Z,100.00
2023-08-11T02:02:54.085Z,100.00
2023-08-11T02:05:26.173Z,100.00
2023-08-11T02:07:56.929Z,100.00
2023-08-11T02:10:25.850Z,100.00
2023-08-11T02:12:55.970Z,100.00
2023-08-11T02:15:24.815Z,100.00
2023-08-11T02:17:53.240Z,100.00
2023-08-11T02:20:23.709Z,100.00
2023-08-11T02:22:53.446Z,100.00
2023-08-11T02:25:23.526Z,100.00
2023-08-11T02:27:53.189Z,100.00
2023-08-11T02:30:23.538Z,100.00
2023-08-11T02:32:53.430Z,100.00
2023-08-11T02:35:22.708Z,100.00
2023-08-11T02:37:51.274Z,100.00
2023-08-11T02:40:21.521Z,100.00
2023-08-11T02:42:55.674Z,100.00
2023-08-11T02:45:25.576Z,100.00
2023-08-11T02:47:54.078Z,100.00
2023-08-11T02:50:22.724Z,100.00
2023-08-11T02:52:51.428Z,100.00
2023-08-11T02:55:20.888Z,100.00
2023-08-11T02:57:49.416Z,100.00
2023-08-11T03:00:18.693Z,100.00
2023-08-11T03:02:49.158Z,100.00
2023-08-11T03:05:18.501Z,100.00
2023-08-11T03:07:51.608Z,100.00
2023-08-11T03:10:20.409Z,100.00
2023-08-11T03:12:48.857Z,100.00
2023-08-11T03:15:17.989Z,100.00
2023-08-11T03:17:46.694Z,100.00
2023-08-11T03:20:17.505Z,100.00
2023-08-11T03:22:47.918Z,100.00
2023-08-11T03:25:21.378Z,100.00
2023-08-11T03:27:51.613Z,100.00
2023-08-11T03:30:25.802Z,100.00
2023-08-11T03:32:55.784Z,100.00
2023-08-11T03:35:38.372Z,100.00
2023-08-11T03:38:07.281Z,100.00
2023-08-11T03:40:37.010Z,100.00
2023-08-11T03:43:05.713Z,100.00
2023-08-11T03:45:36.736Z,100.00
2023-08-11T03:48:10.255Z,100.00
2023-08-11T03:50:40.150Z,100.00
2023-08-11T03:53:09.531Z,100.00
2023-08-11T03:55:39.637Z,100.00
2023-08-11T03:58:09.310Z,100.00
2023-08-11T04:00:39.215Z,100.00
2023-08-11T04:03:11.938Z,100.00
2023-08-11T04:05:41.822Z,100.00
2023-08-11T04:08:10.290Z,100.00
2023-08-11T04:10:39.517Z,100.00
2023-08-11T04:13:09.123Z,100.00
2023-08-11T04:15:37.648Z,100.00
2023-08-11T04:18:06.469Z,100.00
2023-08-11T04:20:34.998Z,100.00
2023-08-11T04:23:06.338Z,100.00
2023-08-11T04:25:37.270Z,100.00
2023-08-11T04:28:06.100Z,100.00
2023-08-11T04:30:34.716Z,100.00
2023-08-11T04:33:03.746Z,100.00
2023-08-11T04:35:35.477Z,100.00
2023-08-11T04:38:06.517Z,100.00
2023-08-11T04:40:36.852Z,100.00
2023-08-11T04:43:07.058Z,100.00
2023-08-11T04:45:41.227Z,100.00
2023-08-11T04:48:11.544Z,100.00
2023-08-11T04:50:44.722Z,100.00
2023-08-11T04:53:14.511Z,100.00
2023-08-11T04:55:43.186Z,100.00
2023-08-11T04:58:12.444Z,100.00
2023-08-11T05:00:40.901Z,100.00
2023-08-11T05:03:09.543Z,100.00
2023-08-11T05:05:38.027Z,100.00
2023-08-11T05:08:07.068Z,100.00
2023-08-11T05:10:36.918Z,100.00
2023-08-11T05:13:05.737Z,100.00
2023-08-11T05:15:34.775Z,100.00
2023-08-11T05:18:03.861Z,100.00
2023-08-11T05:20:32.383Z,100.00
2023-08-11T05:23:01.019Z,100.00
2023-08-11T05:25:29.727Z,100.00
2023-08-11T05:27:59.593Z,100.00
2023-08-11T05:30:29.075Z,100.00
2023-08-11T05:32:58.302Z,100.00
2023-08-11T05:35:27.959Z,100.00
2023-08-11T05:37:56.399Z,100.00
2023-08-11T05:40:25.017Z,100.00
2023-08-11T05:42:53.378Z,100.00
2023-08-11T05:45:23.355Z,100.00
2023-08-11T05:47:51.761Z,100.00
2023-08-11T05:50:20.706Z,100.00
2023-08-11T05:52:49.158Z,100.00
2023-08-11T05:55:17.758Z,100.00
2023-08-11T05:57:46.159Z,100.00
2023-08-11T06:00:18.086Z,100.00
2023-08-11T06:02:48.350Z,100.00
2023-08-11T06:05:16.947Z,100.00
2023-08-11T06:07:55.896Z,100.00
2023-08-11T06:10:33.438Z,100.00
2023-08-11T06:13:02.020Z,100.00
2023-08-11T06:15:31.576Z,100.00
2023-08-11T06:18:02.259Z,100.00
2023-08-11T06:20:39.330Z,100.00
2023-08-11T06:23:09.793Z,100.00
2023-08-11T06:25:38.303Z,100.00
2023-08-11T06:28:08.647Z,100.00
2023-08-11T06:30:37.063Z,100.00
2023-08-11T06:33:07.116Z,100.00
2023-08-11T06:35:35.756Z,100.00
2023-08-11T06:38:04.372Z,100.00
2023-08-11T06:40:32.720Z,98.61
2023-08-11T06:43:01.168Z,98.23
2023-08-11T06:45:29.590Z,97.84
2023-08-11T06:47:58.860Z,95.05
2023-08-11T06:50:28.709Z,97.82
2023-08-11T06:53:00.137Z,95.36
2023-08-11T06:55:29.024Z,93.88
2023-08-11T06:57:57.719Z,87.38
2023-08-11T07:00:26.612Z,82.29
2023-08-11T07:02:55.159Z,82.72
2023-08-11T07:05:23.680Z,78.73
2023-08-11T07:07:53.424Z,78.74
2023-08-11T07:10:22.277Z,76.97
2023-08-11T07:12:50.773Z,75.37
2023-08-11T07:15:19.325Z,74.31
2023-08-11T07:17:48.157Z,70.80
2023-08-11T07:20:16.608Z,68.47
2023-08-11T07:22:45.066Z,68.69
2023-08-11T07:25:15.251Z,67.64
2023-08-11T07:27:44.086Z,68.63
2023-08-11T07:30:13.148Z,72.04
2023-08-11T07:32:42.947Z,71.21
2023-08-11T07:35:11.532Z,70.16
2023-08-11T07:37:40.197Z,72.82
2023-08-11T07:40:10.695Z,66.43
2023-08-11T07:42:40.487Z,65.73
2023-08-11T07:45:10.379Z,69.32
2023-08-11T07:47:39.392Z,63.24
2023-08-11T07:50:08.848Z,64.89
2023-08-11T07:52:37.477Z,64.58
2023-08-11T07:55:06.915Z,67.08
2023-08-11T07:57:35.443Z,63.24
2023-08-11T08:00:06.765Z,64.64
2023-08-11T08:02:40.905Z,64.72
2023-08-11T08:05:13.184Z,62.39
2023-08-11T08:07:42.116Z,61.78
2023-08-11T08:10:11.715Z,61.97
2023-08-11T08:12:40.232Z,63.13
2023-08-11T08:15:11.586Z,62.54
2023-08-11T08:17:40.127Z,61.62
2023-08-11T08:20:10.577Z,60.07
2023-08-11T08:22:39.226Z,63.06
2023-08-11T08:25:08.477Z,57.53
2023-08-11T08:27:37.127Z,59.29
2023-08-11T08:30:06.280Z,60.95
2023-08-11T08:32:36.661Z,58.57
2023-08-11T08:35:05.515Z,55.01
2023-08-11T08:37:33.910Z,57.31
2023-08-11T08:40:03.000Z,56.77
2023-08-11T08:42:31.374Z,55.20
2023-08-11T08:45:00.313Z,54.96
2023-08-11T08:47:28.875Z,54.59
2023-08-11T08:49:58.739Z,54.52
2023-08-11T08:52:27.419Z,52.42
2023-08-11T08:54:57.327Z,54.44
2023-08-11T08:57:26.880Z,54.51
2023-08-11T08:59:55.567Z,52.72
2023-08-11T09:02:29.101Z,52.59
2023-08-11T09:04:59.124Z,52.02
2023-08-11T09:07:28.940Z,54.57
2023-08-11T09:09:57.334Z,55.84
2023-08-11T09:12:28.896Z,53.91
2023-08-11T09:14:59.882Z,53.13
2023-08-11T09:17:28.396Z,54.69
2023-08-11T09:19:59.270Z,55.82
2023-08-11T09:22:27.950Z,51.52
2023-08-11T09:24:57.089Z,50.88
2023-08-11T09:27:25.797Z,54.87
2023-08-11T09:29:54.384Z,52.39
2023-08-11T09:32:26.983Z,53.00
2023-08-11T09:34:55.767Z,51.29
2023-08-11T09:37:25.647Z,52.35
2023-08-11T09:39:57.614Z,52.30
2023-08-11T09:42:28.953Z,51.63
2023-08-11T09:44:57.310Z,51.64
2023-08-11T09:47:25.778Z,52.54
2023-08-11T09:49:54.250Z,46.70
2023-08-11T09:52:22.761Z,48.25
2023-08-11T09:54:53.048Z,46.30
2023-08-11T09:57:21.432Z,46.09
2023-08-11T09:59:49.924Z,45.51
2023-08-11T10:02:20.398Z,46.42
2023-08-11T10:05:00.921Z,44.84
2023-08-11T10:07:31.966Z,47.48
2023-08-11T10:10:02.489Z,45.11
2023-08-11T10:12:31.175Z,47.17
2023-08-11T10:14:59.569Z,44.92
2023-08-11T10:17:28.071Z,46.48
2023-08-11T10:19:57.103Z,46.50
2023-08-11T10:22:26.362Z,42.49
2023-08-11T10:24:54.803Z,46.74
2023-08-11T10:27:24.660Z,43.60
2023-08-11T10:29:53.630Z,42.69
2023-08-11T10:32:24.689Z,42.03
2023-08-11T10:34:56.402Z,43.68
2023-08-11T10:37:26.211Z,44.28
2023-08-11T10:40:06.534Z,41.27
2023-08-11T10:42:37.962Z,40.31
2023-08-11T10:45:11.018Z,40.52
2023-08-11T10:47:40.906Z,41.77
2023-08-11T10:50:12.373Z,44.34
2023-08-11T10:52:41.157Z,44.76
2023-08-11T10:55:09.827Z,43.97
2023-08-11T10:57:39.682Z,42.38
2023-08-11T11:00:10.654Z,41.61
2023-08-11T11:02:39.173Z,40.56
2023-08-11T11:05:09.131Z,38.18
2023-08-11T11:07:39.960Z,39.29
2023-08-11T11:10:09.638Z,42.64
2023-08-11T11:12:39.456Z,43.97
2023-08-11T11:15:08.989Z,41.61
2023-08-11T11:17:37.425Z,41.58
2023-08-11T11:20:06.416Z,41.89
2023-08-11T11:22:35.162Z,41.90
2023-08-11T11:25:03.992Z,40.32
2023-08-11T11:27:32.626Z,40.80
2023-08-11T11:30:02.932Z,39.98
2023-08-11T11:32:31.367Z,39.81
2023-08-11T11:34:59.721Z,38.85
2023-08-11T11:37:28.155Z,39.16
2023-08-11T11:39:56.582Z,40.15
2023-08-11T11:42:25.617Z,39.23
2023-08-11T11:44:54.059Z,39.88
2023-08-11T11:47:23.916Z,40.08
2023-08-11T11:49:56.601Z,41.38
2023-08-11T11:52:25.564Z,43.17
2023-08-11T11:54:54.340Z,41.12
2023-08-11T11:57:23.039Z,42.75
2023-08-11T11:59:51.886Z,41.45
2023-08-11T12:02:22.073Z,38.86
2023-08-11T12:04:53.997Z,42.06
2023-08-11T12:07:32.803Z,41.63
2023-08-11T12:10:01.608Z,42.01
2023-08-11T12:12:30.048Z,42.30
2023-08-11T12:15:02.834Z,41.37
2023-08-11T12:17:32.503Z,42.56
2023-08-11T12:20:02.997Z,43.38
2023-08-11T12:22:32.784Z,43.77
2023-08-11T12:25:01.175Z,40.23
2023-08-11T12:27:30.532Z,43.19
2023-08-11T12:29:58.959Z,42.99
2023-08-11T12:32:27.438Z,43.20
2023-08-11T12:34:56.135Z,44.62
2023-08-11T12:37:27.425Z,45.48
2023-08-11T12:39:55.800Z,46.95
2023-08-11T12:42:24.234Z,45.33
2023-08-11T12:44:52.640Z,45.04
2023-08-11T12:47:21.639Z,45.69
2023-08-11T12:49:50.101Z,45.66
2023-08-11T12:52:18.484Z,43.88
2023-08-11T12:54:48.316Z,45.46
2023-08-11T12:57:16.723Z,45.01
2023-08-11T12:59:45.300Z,48.11
2023-08-11T13:02:14.508Z,44.90
2023-08-11T13:04:42.965Z,46.97
2023-08-11T13:07:11.570Z,47.57
2023-08-11T13:09:40.058Z,46.73
2023-08-11T13:12:13.624Z,47.88
2023-08-11T13:14:42.593Z,46.54
2023-08-11T13:17:11.859Z,46.51
2023-08-11T13:19:40.250Z,47.23
2023-08-11T13:22:09.535Z,46.96
2023-08-11T13:24:38.521Z,46.97
2023-08-11T13:27:07.117Z,48.61
2023-08-11T13:29:36.955Z,49.11
2023-08-11T13:32:05.689Z,49.40
2023-08-11T13:34:34.239Z,48.77
2023-08-11T13:37:02.678Z,47.94
2023-08-11T13:39:31.050Z,46.82
2023-08-11T13:41:59.516Z,48.03
2023-08-11T13:44:28.390Z,47.71
2023-08-11T13:46:59.410Z,47.81
2023-08-11T13:49:27.768Z,46.80
2023-08-11T13:51:56.182Z,48.61
2023-08-11T13:54:25.064Z,48.22
2023-08-11T13:56:53.847Z,47.39
2023-08-11T13:59:22.282Z,47.59
2023-08-11T14:01:50.670Z,49.03
2023-08-11T14:04:20.567Z,47.16
2023-08-11T14:06:48.960Z,48.10
2023-08-11T14:09:17.464Z,47.11
2023-08-11T14:11:46.714Z,46.83
2023-08-11T14:14:15.099Z,48.33
2023-08-11T14:16:43.479Z,47.82
2023-08-11T14:19:11.845Z,47.25
2023-08-11T14:21:41.602Z,47.34
2023-08-11T14:24:10.779Z,49.46
2023-08-11T14:26:39.342Z,46.86
2023-08-11T14:29:07.832Z,45.12
2023-08-11T14:31:36.230Z,44.96
2023-08-11T14:34:05.465Z,43.93
2023-08-11T14:36:34.005Z,43.42
2023-08-11T14:39:05.564Z,44.12
2023-08-11T14:41:33.958Z,45.08
2023-08-11T14:44:02.365Z,44.45
2023-08-11T14:46:30.779Z,43.96
2023-08-11T14:48:59.190Z,43.08
2023-08-11T14:51:27.981Z,44.82
2023-08-11T14:53:56.364Z,44.46
2023-08-11T14:56:27.664Z,44.28
2023-08-11T14:58:56.284Z,42.65
2023-08-11T15:01:25.396Z,42.82
2023-08-11T15:03:53.912Z,42.41
2023-08-11T15:06:24.613Z,42.06
2023-08-11T15:08:54.783Z,43.68
2023-08-11T15:11:23.239Z,42.80
2023-08-11T15:13:53.105Z,41.93
2023-08-11T15:16:22.367Z,44.18
2023-08-11T15:18:51.262Z,45.55
2023-08-11T15:21:21.486Z,45.11
2023-08-11T15:23:49.935Z,44.75
2023-08-11T15:26:19.563Z,43.15
2023-08-11T15:28:48.175Z,43.82
2023-08-11T15:31:18.138Z,45.27
2023-08-11T15:33:47.552Z,44.73
2023-08-11T15:36:16.451Z,44.25
2023-08-11T15:38:44.865Z,45.01
2023-08-11T15:41:13.975Z,44.60
2023-08-11T15:43:42.440Z,44.14
2023-08-11T15:46:11.586Z,43.96
2023-08-11T15:48:43.582Z,44.70
2023-08-11T15:51:11.982Z,43.83
2023-08-11T15:53:40.552Z,43.66
2023-08-11T15:56:09.098Z,44.48
2023-08-11T15:58:38.678Z,46.52
2023-08-11T16:01:07.153Z,45.49
2023-08-11T16:03:36.469Z,44.75
2023-08-11T16:06:06.970Z,43.97
2023-08-11T16:08:35.526Z,45.64
2023-08-11T16:11:04.046Z,48.04
2023-08-11T16:13:32.463Z,46.56
2023-08-11T16:16:01.449Z,48.37
2023-08-11T16:18:32.382Z,45.08
2023-08-11T16:21:03.901Z,45.43
2023-08-11T16:23:34.782Z,45.15
2023-08-11T16:26:03.579Z,47.81
2023-08-11T16:28:32.061Z,49.42
2023-08-11T16:31:00.498Z,47.97
2023-08-11T16:33:29.011Z,47.53
2023-08-11T16:35:57.436Z,47.30
2023-08-11T16:38:25.850Z,47.21
2023-08-11T16:40:56.030Z,50.82
2023-08-11T16:43:24.755Z,52.84
2023-08-11T16:45:53.271Z,53.33
2023-08-11T16:48:21.730Z,52.44
2023-08-11T16:50:50.789Z,50.21
2023-08-11T16:53:19.480Z,53.43
2023-08-11T16:55:49.127Z,51.99
2023-08-11T16:58:19.736Z,52.33
2023-08-11T17:00:52.601Z,54.40
2023-08-11T17:03:24.038Z,56.85
2023-08-11T17:05:52.602Z,58.15
2023-08-11T17:08:21.050Z,59.85
2023-08-11T17:10:49.505Z,58.01
2023-08-11T17:13:19.354Z,59.71
2023-08-11T17:15:47.776Z,61.68
2023-08-11T17:18:16.293Z,61.28
2023-08-11T17:20:45.179Z,63.68
2023-08-11T17:23:13.685Z,63.19
2023-08-11T17:25:42.102Z,64.43
2023-08-11T17:28:10.534Z,66.45
2023-08-11T17:30:41.538Z,66.63
2023-08-11T17:33:10.049Z,67.73
2023-08-11T17:35:40.431Z,70.11
2023-08-11T17:38:10.629Z,71.45
2023-08-11T17:40:41.022Z,72.25
2023-08-11T17:43:11.461Z,72.20
2023-08-11T17:45:41.959Z,74.55
2023-08-11T17:48:10.639Z,75.71
2023-08-11T17:50:39.421Z,75.94
2023-08-11T17:53:07.886Z,77.27
2023-08-11T17:55:36.331Z,78.69
2023-08-11T17:58:05.040Z,80.42
2023-08-11T18:00:33.558Z,80.44
2023-08-11T18:03:03.435Z,79.56
2023-08-11T18:05:31.979Z,80.21
2023-08-11T18:08:00.856Z,80.12
2023-08-11T18:10:29.465Z,81.03
2023-08-11T18:12:57.894Z,82.32
2023-08-11T18:15:27.035Z,85.06
2023-08-11T18:17:56.488Z,86.02
2023-08-11T18:20:27.097Z,86.54
2023-08-11T18:22:56.062Z,87.30
2023-08-11T18:25:24.498Z,87.91
2023-08-11T18:28:01.058Z,87.72
2023-08-11T18:30:30.181Z,87.73
2023-08-11T18:32:59.234Z,88.23
2023-08-11T18:35:29.086Z,87.68
2023-08-11T18:38:06.504Z,89.67
2023-08-11T18:40:40.844Z,91.12
2023-08-11T18:43:09.758Z,92.47
2023-08-11T18:45:38.638Z,92.49
2023-08-11T18:48:07.980Z,93.17
2023-08-11T18:50:37.885Z,92.97
2023-08-11T18:53:06.452Z,94.93
2023-08-11T18:55:35.101Z,94.56
2023-08-11T18:58:04.996Z,95.26
2023-08-11T19:00:33.422Z,95.60
2023-08-11T19:03:02.076Z,96.65
2023-08-11T19:05:32.525Z,97.75
2023-08-11T19:08:02.489Z,98.41
2023-08-11T19:10:31.541Z,97.88
2023-08-11T19:13:00.468Z,97.28
2023-08-11T19:15:29.360Z,98.88
2023-08-11T19:17:59.059Z,99.75
2023-08-11T19:20:27.565Z,100.00
2023-08-11T19:22:58.031Z,100.00
2023-08-11T19:25:30.712Z,100.00
2023-08-11T19:27:59.189Z,100.00
2023-08-11T19:30:28.562Z,100.00
2023-08-11T19:32:59.177Z,100.00
2023-08-11T19:35:28.028Z,100.00
2023-08-11T19:37:56.789Z,100.00
2023-08-11T19:40:25.229Z,100.00
2023-08-11T19:42:55.096Z,100.00
2023-08-11T19:45:24.091Z,100.00
2023-08-11T19:47:53.487Z,100.00
2023-08-11T19:50:23.985Z,100.00
2023-08-11T19:52:53.181Z,100.00
2023-08-11T19:55:21.783Z,100.00
2023-08-11T19:57:51.139Z,100.00
2023-08-11T20:00:21.275Z,100.00
2023-08-11T20:02:50.310Z,100.00
2023-08-11T20:05:20.624Z,100.00
2023-08-11T20:07:49.038Z,100.00
2023-08-11T20:10:17.532Z,100.00
2023-08-11T20:12:46.835Z,100.00
2023-08-11T20:15:15.231Z,100.00
2023-08-11T20:17:45.737Z,100.00
2023-08-11T20:20:14.601Z,100.00
2023-08-11T20:22:43.172Z,100.00
2023-08-11T20:25:11.841Z,100.00
2023-08-11T20:27:40.237Z,100.00
2023-08-11T20:30:10.405Z,100.00
2023-08-11T20:32:39.048Z,100.00
2023-08-11T20:35:10.296Z,100.00
2023-08-11T20:37:39.194Z,100.00
2023-08-11T20:40:10.197Z,100.00
2023-08-11T20:42:38.871Z,100.00
2023-08-11T20:45:08.190Z,100.00
2023-08-11T20:47:37.028Z,100.00
2023-08-11T20:50:06.573Z,100.00
2023-08-11T20:52:36.493Z,100.00
2023-08-11T20:55:05.123Z,100.00
2023-08-11T20:57:34.080Z,100.00
2023-08-11T21:00:02.433Z,100.00
2023-08-11T21:02:31.017Z,100.00
2023-08-11T21:04:59.441Z,100.00
2023-08-11T21:07:28.358Z,100.00
2023-08-11T21:09:58.514Z,100.00
2023-08-11T21:12:27.247Z,100.00
2023-08-11T21:14:55.663Z,100.00
2023-08-11T21:17:24.361Z,100.00
2023-08-11T21:19:52.801Z,100.00
2023-08-11T21:22:21.159Z,100.00
2023-08-11T21:24:50.402Z,100.00
2023-08-11T21:27:20.351Z,100.00
2023-08-11T21:29:48.852Z,100.00
2023-08-11T21:32:17.734Z,100.00
2023-08-11T21:34:46.130Z,100.00
2023-08-11T21:37:14.726Z,100.00
2023-08-11T21:39:44.116Z,100.00
2023-08-11T21:42:13.457Z,100.00
2023-08-11T21:44:43.296Z,100.00
2023-08-11T21:47:12.449Z,100.00
2023-08-11T21:49:44.373Z,100.00
2023-08-11T21:52:13.417Z,100.00
2023-08-11T21:54:41.804Z,100.00
2023-08-11T21:57:11.709Z,100.00
2023-08-11T21:59:42.406Z,100.00
2023-08-11T22:02:12.412Z,100.00
2023-08-11T22:04:42.530Z,100.00
2023-08-11T22:07:12.109Z,100.00
2023-08-11T22:09:42.836Z,100.00
2023-08-11T22:12:12.325Z,100.00
2023-08-11T22:14:40.795Z,100.00
2023-08-11T22:17:11.318Z,100.00
2023-08-11T22:19:46.903Z,100.00
2023-08-11T22:22:17.958Z,100.00
2023-08-11T22:24:47.884Z,100.00
2023-08-11T22:27:16.664Z,100.00
2023-08-11T22:29:50.413Z,100.00
2023-08-11T22:32:18.916Z,100.00
2023-08-11T22:34:53.346Z,100.00
2023-08-11T22:37:23.790Z,100.00
2023-08-11T22:39:52.519Z,100.00
2023-08-11T22:42:21.724Z,100.00
2023-08-11T22:44:51.458Z,100.00
2023-08-11T22:47:20.391Z,100.00
2023-08-11T22:49:50.351Z,100.00
2023-08-11T22:52:18.898Z,100.00
2023-08-11T22:54:47.381Z,100.00
2023-08-11T22:57:15.909Z,100.00
2023-08-11T22:59:45.435Z,100.00
2023-08-11T23:02:16.506Z,100.00
2023-08-11T23:04:44.936Z,100.00
2023-08-11T23:07:16.779Z,100.00
2023-08-11T23:09:45.182Z,100.00
2023-08-11T23:12:14.035Z,100.00
2023-08-11T23:14:42.821Z,100.00
2023-08-11T23:17:11.401Z,100.00
2023-08-11T23:19:40.074Z,100.00
2023-08-11T23:22:08.437Z,100.00
2023-08-11T23:24:38.202Z,100.00
2023-08-11T23:27:06.927Z,100.00
2023-08-11T23:29:35.448Z,100.00
2023-08-11T23:32:03.892Z,100.00
2023-08-11T23:34:32.296Z,100.00
2023-08-11T23:37:00.673Z,100.00
2023-08-11T23:39:30.893Z,100.00
2023-08-11T23:42:01.286Z,100.00
2023-08-11T23:44:29.729Z,100.00
2023-08-11T23:46:58.396Z,100.00
2023-08-11T23:49:26.806Z,100.00
2023-08-11T23:51:55.213Z,100.00
2023-08-11T23:54:23.791Z,100.00
2023-08-11T23:56:52.719Z,100.00
2023-08-11T23:59:22.884Z,100.00
